Time;durP1;ratioP1;P1;durP2;ratioP2;P2;SDS_P1;SDS_P2;PMS_P1;PMS_P2;Temp;Humidity;BMP_temperature;BMP_pressure;BME280_temperature;BME280_humidity;BME280_pressure;Samples;Min_cycle;Max_cycle;Signal;HPM_P1;HPM_P2
2020/12/18 00:01:46;;;;;;;39.83;28.60;;;;;;;4.56;88.52;100040.72;1778251;79;21105;-63
2020/12/18 00:04:16;;;;;;;44.88;29.95;;;;;;;4.59;88.56;100037.63;1776530;79;21186;-64
2020/12/18 00:06:45;;;;;;;45.65;30.88;;;;;;;4.61;88.56;100041.05;1778211;79;21214;-63
2020/12/18 00:09:14;;;;;;;47.15;30.75;;;;;;;4.59;88.47;100035.05;1780717;79;21283;-63
2020/12/18 00:11:41;;;;;;;44.30;30.17;;;;;;;4.62;88.60;100046.66;1777176;79;21227;-63
2020/12/18 00:14:08;;;;;;;47.60;30.02;;;;;;;4.65;88.60;100037.55;1780446;79;21210;-63
2020/12/18 00:16:38;;;;;;;41.60;25.85;;;;;;;4.71;88.64;100035.30;1777664;80;22093;-63
2020/12/18 00:19:05;;;;;;;46.37;30.75;;;;;;;4.74;88.57;100035.68;1782252;79;21210;-63
2020/12/18 00:21:34;;;;;;;54.13;33.88;;;;;;;4.73;88.52;100039.12;1773579;80;21054;-63
2020/12/18 00:24:03;;;;;;;45.40;29.50;;;;;;;4.75;88.56;100037.37;1775898;79;21179;-63
2020/12/18 00:26:36;;;;;;;46.30;31.07;;;;;;;4.76;88.58;100044.24;1772251;79;21159;-63
2020/12/18 00:29:08;;;;;;;45.48;28.17;;;;;;;4.74;88.48;100048.62;1772373;79;21271;-62
2020/12/18 00:31:36;;;;;;;44.10;27.60;;;;;;;4.76;88.58;100049.41;1776472;79;21623;-62
2020/12/18 00:34:05;;;;;;;39.55;26.30;;;;;;;4.80;88.65;100048.50;1769729;79;21112;-63
2020/12/18 00:36:34;;;;;;;37.13;25.52;;;;;;;4.82;88.61;100044.16;1745074;79;21639;-62
2020/12/18 00:39:05;;;;;;;39.63;26.25;;;;;;;4.84;88.62;100050.13;1770219;79;21164;-63
2020/12/18 00:41:34;;;;;;;37.80;25.65;;;;;;;4.86;88.65;100045.34;1773019;79;21208;-63
2020/12/18 00:44:02;;;;;;;38.08;24.65;;;;;;;4.88;88.68;100052.64;1773537;79;21179;-63
2020/12/18 00:46:31;;;;;;;36.13;22.65;;;;;;;4.91;88.61;100049.15;1775482;79;21107;-63
2020/12/18 00:48:58;;;;;;;35.58;25.00;;;;;;;4.91;88.56;100055.62;1773103;79;21323;-63
2020/12/18 00:51:27;;;;;;;35.25;27.32;;;;;;;4.88;88.54;100054.38;1771534;79;26973;-63
2020/12/18 00:53:57;;;;;;;39.13;25.27;;;;;;;4.90;88.64;100061.66;1773532;79;21605;-63
2020/12/18 00:56:26;;;;;;;34.60;22.95;;;;;;;4.90;88.70;100056.06;1772778;79;21349;-63
2020/12/18 00:58:55;;;;;;;32.73;23.32;;;;;;;4.93;88.66;100059.04;1772000;79;21204;-63
2020/12/18 01:01:23;;;;;;;31.40;21.27;;;;;;;4.95;88.72;100058.55;1775859;80;21171;-64
2020/12/18 01:03:52;;;;;;;32.88;21.02;;;;;;;4.95;88.75;100057.25;1782039;79;21206;-63
2020/12/18 01:06:19;;;;;;;27.07;20.50;;;;;;;4.97;88.74;100055.50;1788161;79;21207;-64
2020/12/18 01:08:48;;;;;;;30.92;21.12;;;;;;;4.99;88.80;100058.92;1773860;79;21228;-64
2020/12/18 01:11:16;;;;;;;30.10;20.97;;;;;;;5.02;88.79;100060.15;1770076;80;22270;-63
2020/12/18 01:13:44;;;;;;;29.85;21.60;;;;;;;5.02;88.77;100062.73;1760322;80;21231;-63
2020/12/18 01:16:13;;;;;;;29.02;21.02;;;;;;;5.02;88.74;100062.73;1774104;79;21230;-63
2020/12/18 01:18:41;;;;;;;24.70;18.75;;;;;;;5.03;88.76;100061.84;1774714;79;21252;-63
2020/12/18 01:21:08;;;;;;;32.48;21.50;;;;;;;5.03;88.70;100064.43;1774390;79;21300;-64
2020/12/18 01:23:35;;;;;;;32.80;21.52;;;;;;;5.04;88.70;100063.57;1770030;79;21550;-63
2020/12/18 01:26:03;;;;;;;31.57;21.48;;;;;;;5.06;88.74;100066.95;1772684;79;21614;-62
2020/12/18 01:28:32;;;;;;;26.17;19.92;;;;;;;5.04;88.66;100068.75;1771145;79;21143;-63
2020/12/18 01:31:01;;;;;;;29.87;20.80;;;;;;;5.03;88.62;100069.61;1774346;79;21199;-63
2020/12/18 01:33:29;;;;;;;28.57;20.05;;;;;;;5.01;88.62;100069.22;1774480;79;21266;-63
2020/12/18 01:35:58;;;;;;;26.75;19.23;;;;;;;5.01;88.69;100062.30;1772983;79;21175;-63
2020/12/18 01:38:26;;;;;;;26.15;17.90;;;;;;;5.00;88.68;100067.08;1774195;79;21221;-63
2020/12/18 01:40:54;;;;;;;28.55;19.42;;;;;;;5.00;88.72;100064.49;1770480;78;21239;-63
2020/12/18 01:43:22;;;;;;;30.85;20.30;;;;;;;5.02;88.79;100070.50;1769986;79;21266;-62
2020/12/18 01:45:49;;;;;;;27.05;18.65;;;;;;;5.04;88.80;100078.22;1761008;79;22145;-63
2020/12/18 01:48:17;;;;;;;25.60;17.85;;;;;;;5.06;88.83;100069.55;1790318;79;21203;-63
2020/12/18 01:50:48;;;;;;;26.37;18.40;;;;;;;5.05;88.79;100061.37;1762114;80;21253;-63
2020/12/18 01:53:15;;;;;;;23.57;17.02;;;;;;;5.06;88.86;100069.55;1774617;80;21242;-63
2020/12/18 01:55:43;;;;;;;;;;;;;;;5.05;88.73;100065.27;1777083;80;21199;-64
2020/12/18 01:58:12;;;;;;;28.92;18.40;;;;;;;5.02;88.78;100062.73;1771262;80;20201;-63
2020/12/18 02:00:42;;;;;;;23.85;16.85;;;;;;;5.01;88.83;100066.19;1774283;78;21278;-63
2020/12/18 02:03:11;;;;;;;20.70;15.00;;;;;;;5.00;88.83;100061.91;1791821;78;21175;-62
2020/12/18 02:05:40;;;;;;;21.55;16.87;;;;;;;4.99;88.85;100067.97;1773526;80;21263;-62
2020/12/18 02:08:07;;;;;;;24.00;17.17;;;;;;;5.01;88.93;100071.36;1793340;78;21422;-62
2020/12/18 02:10:36;;;;;;;25.02;17.12;;;;;;;5.03;88.96;100081.25;1795492;78;21288;-63
2020/12/18 02:13:04;;;;;;;22.70;15.88;;;;;;;5.06;88.98;100077.31;1796320;78;21321;-63
2020/12/18 02:15:32;;;;;;;23.75;16.85;;;;;;;5.08;88.97;100075.55;1771244;78;21149;-63
2020/12/18 02:18:00;;;;;;;22.87;16.42;;;;;;;5.10;88.98;100072.50;1760403;80;21157;-63
2020/12/18 02:20:29;;;;;;;26.73;19.30;;;;;;;5.11;89.00;100062.55;1782987;79;21311;-64
2020/12/18 02:22:57;;;;;;;24.23;17.25;;;;;;;5.12;88.96;100063.39;1779535;79;21163;-63
2020/12/18 02:25:26;;;;;;;24.27;18.12;;;;;;;5.14;88.98;100069.41;1778807;79;21226;-63
2020/12/18 02:27:54;;;;;;;23.60;17.42;;;;;;;5.14;88.95;100078.02;1768217;79;21219;-63
2020/12/18 02:30:22;;;;;;;23.95;18.00;;;;;;;5.13;88.93;100078.91;1798188;78;21203;-63
2020/12/18 02:32:51;;;;;;;24.40;17.35;;;;;;;5.15;89.01;100084.92;1775281;79;21273;-63
2020/12/18 02:35:19;;;;;;;24.32;18.57;;;;;;;5.19;89.03;100083.56;1772578;79;21171;-64
2020/12/18 02:37:47;;;;;;;28.10;18.80;;;;;;;5.19;89.00;100080.98;1773909;79;21246;-63
2020/12/18 02:40:16;;;;;;;25.88;17.95;;;;;;;5.18;88.97;100077.51;1774107;79;21214;-63
2020/12/18 02:42:44;;;;;;;25.85;19.40;;;;;;;5.19;88.99;100079.23;1774808;79;21180;-62
2020/12/18 02:45:12;;;;;;;28.55;19.67;;;;;;;5.21;89.05;100080.48;1772540;79;21199;-63
2020/12/18 02:47:39;;;;;;;25.92;19.27;;;;;;;5.23;89.13;100085.20;1772765;79;21231;-63
2020/12/18 02:50:28;;;;;;;25.30;17.50;;;;;;;5.26;89.20;100083.84;1776963;79;21641;-63
2020/12/18 02:52:56;;;;;;;30.85;21.27;;;;;;;5.27;89.09;100084.27;1759905;79;21668;-62
2020/12/18 02:55:24;;;;;;;30.00;19.60;;;;;;;5.26;89.14;100087.27;1762241;79;21229;-63
2020/12/18 02:57:51;;;;;;;30.55;18.82;;;;;;;5.29;89.16;100085.07;1758703;79;21260;-64
2020/12/18 03:00:19;;;;;;;28.85;20.25;;;;;;;5.28;89.08;100089.84;1755720;79;21291;-63
2020/12/18 03:02:47;;;;;;;32.05;21.12;;;;;;;5.30;89.14;100082.91;1757671;79;21178;-63
2020/12/18 03:05:14;;;;;;;30.80;20.25;;;;;;;5.34;89.22;100087.13;1755411;78;21264;-63
2020/12/18 03:07:43;;;;;;;33.05;21.68;;;;;;;5.37;89.18;100087.06;1756725;79;21660;-64
2020/12/18 03:10:10;;;;;;;33.58;21.12;;;;;;;5.37;89.13;100085.33;1765791;79;21229;-64
2020/12/18 03:12:38;;;;;;;33.02;22.62;;;;;;;5.40;89.21;100087.00;1764146;79;21680;-63
2020/12/18 03:15:06;;;;;;;30.90;21.57;;;;;;;5.42;89.24;100082.66;1756377;79;21250;-62
2020/12/18 03:17:34;;;;;;;35.08;22.82;;;;;;;5.44;89.25;100083.48;1755319;79;21193;-63
2020/12/18 03:20:02;;;;;;;;;;;;;;;5.45;89.23;100090.36;1758728;79;21687;-63
2020/12/18 03:22:31;;;;;;;36.17;21.90;;;;;;;5.47;89.22;100092.93;1759487;79;20581;-63
2020/12/18 03:24:59;;;;;;;36.95;23.90;;;;;;;5.45;89.23;100082.59;1731932;81;22320;-63
2020/12/18 03:27:26;;;;;;;32.85;22.40;;;;;;;5.47;89.26;100086.01;1728314;81;21201;-63
2020/12/18 03:29:54;;;;;;;37.20;23.00;;;;;;;5.48;89.25;100087.70;1728161;81;21315;-63
2020/12/18 03:32:22;;;;;;;35.75;23.67;;;;;;;5.50;89.30;100083.35;1765966;79;21184;-63
2020/12/18 03:34:51;;;;;;;38.83;23.67;;;;;;;5.52;89.29;100091.95;1765960;79;21321;-63
2020/12/18 03:37:20;;;;;;;38.02;22.52;;;;;;;5.53;89.31;100093.64;1743750;80;21333;-63
2020/12/18 03:39:48;;;;;;;36.00;23.77;;;;;;;5.53;89.28;100087.17;1766303;79;21258;-63
2020/12/18 03:42:17;;;;;;;35.30;24.18;;;;;;;5.52;89.27;100086.77;1737038;79;21213;-63
2020/12/18 03:44:44;;;;;;;34.95;24.52;;;;;;;5.53;89.27;100091.05;1739137;79;21226;-64
2020/12/18 03:47:13;;;;;;;38.38;25.43;;;;;;;5.53;89.31;100085.88;1761686;79;21297;-64
2020/12/18 03:49:40;;;;;;;33.80;23.27;;;;;;;5.55;89.37;100091.88;1751412;80;21158;-64
2020/12/18 03:52:08;;;;;;;34.83;22.30;;;;;;;5.54;89.25;100090.16;1767300;79;21143;-63
2020/12/18 03:54:37;;;;;;;34.55;23.47;;;;;;;5.55;89.29;100086.70;1758725;80;21260;-63
2020/12/18 03:57:04;;;;;;;34.38;23.60;;;;;;;5.55;89.33;100098.36;1757242;80;21258;-63
2020/12/18 03:59:32;;;;;;;33.75;24.57;;;;;;;5.58;89.35;100100.88;1764852;79;23156;-63
2020/12/18 04:02:01;;;;;;;37.45;24.57;;;;;;;5.60;89.42;100104.30;1739422;79;21669;-63
2020/12/18 04:04:30;;;;;;;39.18;25.80;;;;;;;5.60;89.42;100104.30;1758288;79;21142;-63
2020/12/18 04:06:57;;;;;;;34.13;23.22;;;;;;;5.61;89.42;100104.70;1763263;79;21147;-64
2020/12/18 04:09:25;;;;;;;36.25;23.95;;;;;;;5.64;89.41;100106.38;1756684;79;21191;-63
2020/12/18 04:11:53;;;;;;;38.40;23.95;;;;;;;5.67;89.48;100113.23;1755737;79;21481;-63
2020/12/18 04:14:22;;;;;;;35.00;23.42;;;;;;;5.69;89.48;100103.70;1758063;79;21259;-63
2020/12/18 04:16:50;;;;;;;34.63;24.27;;;;;;;5.71;89.43;100107.09;1756666;79;21187;-63
2020/12/18 04:19:19;;;;;;;33.42;23.52;;;;;;;5.72;89.44;100119.18;1756464;79;21175;-63
2020/12/18 04:21:47;;;;;;;31.57;24.20;;;;;;;5.70;89.33;100118.34;1753267;79;21213;-63
2020/12/18 04:24:15;;;;;;;34.05;24.02;;;;;;;5.70;89.44;100115.77;1738456;79;21864;-63
2020/12/18 04:26:45;;;;;;;37.30;23.42;;;;;;;5.70;89.42;100123.53;1744287;80;21177;-64
2020/12/18 04:29:13;;;;;;;39.63;24.30;;;;;;;5.70;89.44;100120.49;1765188;79;21119;-62
2020/12/18 04:31:42;;;;;;;33.10;23.00;;;;;;;5.71;89.46;100123.93;1753680;79;21153;-63
2020/12/18 04:34:10;;;;;;;35.08;24.70;;;;;;;5.72;89.44;100130.84;1756456;79;21241;-64
2020/12/18 04:36:38;;;;;;;40.05;26.05;;;;;;;5.71;89.50;100130.41;1755638;79;21207;-63
2020/12/18 04:39:07;;;;;;;39.20;24.98;;;;;;;5.72;89.55;100125.20;1754766;79;21241;-62
2020/12/18 04:41:36;;;;;;;39.15;24.87;;;;;;;5.73;89.48;100126.91;1756202;79;21682;-63
2020/12/18 04:44:05;;;;;;;36.70;25.20;;;;;;;5.75;89.55;100126.88;1756887;79;22386;-63
2020/12/18 04:46:36;;;;;;;39.90;27.25;;;;;;;5.77;89.57;100125.09;1756055;79;21201;-63
2020/12/18 04:49:04;;;;;;;39.75;25.57;;;;;;;5.79;89.55;100125.92;1754613;80;21285;-63
2020/12/18 04:51:34;;;;;;;34.50;24.85;;;;;;;5.81;89.52;100129.34;1754354;80;21643;-63
2020/12/18 04:54:04;;;;;;;40.08;25.95;;;;;;;5.82;89.55;100123.27;1740797;79;21214;-63
2020/12/18 04:56:35;;;;;;;42.62;27.80;;;;;;;5.82;89.51;100123.27;1741786;79;21574;-63
2020/12/18 04:59:02;;;;;;;41.63;26.65;;;;;;;5.84;89.52;100122.80;1738785;80;21206;-64
2020/12/18 05:01:30;;;;;;;34.13;24.32;;;;;;;5.85;89.55;100123.19;1762391;79;22464;-63
2020/12/18 05:03:58;;;;;;;;;;;;;;;5.85;89.54;100119.30;1761512;79;21613;-63
2020/12/18 05:06:25;;;;;;;39.30;26.05;;;;;;;5.86;89.56;100127.51;1759085;79;20315;-62
2020/12/18 05:08:52;;;;;;;42.80;26.90;;;;;;;5.88;89.61;100128.75;1768107;79;21286;-64
2020/12/18 05:11:26;;;;;;;39.38;26.12;;;;;;;5.87;89.56;100118.84;1739890;80;21228;-64
2020/12/18 05:13:55;;;;;;;44.08;27.32;;;;;;;5.83;89.49;100122.40;1770605;78;21208;-63
2020/12/18 05:16:24;;;;;;;35.73;25.92;;;;;;;5.83;89.61;100130.17;1769167;79;21182;-63
2020/12/18 05:18:52;;;;;;;36.38;24.43;;;;;;;5.85;89.64;100128.37;1770221;79;21218;-63
2020/12/18 05:21:20;;;;;;;39.15;25.45;;;;;;;5.87;89.62;100127.06;1759816;79;21240;-63
2020/12/18 05:23:48;;;;;;;37.67;25.20;;;;;;;5.86;89.58;100137.03;1772919;78;21218;-64
2020/12/18 05:26:17;;;;;;;41.42;25.48;;;;;;;5.86;89.61;100135.28;1769642;78;21246;-64
2020/12/18 05:28:48;;;;;;;41.02;26.37;;;;;;;5.87;89.66;100133.54;1741622;80;21119;-63
2020/12/18 05:31:18;;;;;;;37.20;24.85;;;;;;;5.89;89.71;100130.03;1765425;79;21219;-63
2020/12/18 05:33:49;;;;;;;37.98;24.35;;;;;;;5.90;89.66;100143.39;1763289;78;21119;-62
2020/12/18 05:36:16;;;;;;;36.30;23.57;;;;;;;5.89;89.65;100148.17;1761271;79;21203;-64
2020/12/18 05:38:45;;;;;;;30.92;23.22;;;;;;;5.89;89.67;100142.98;1755306;79;21370;-63
2020/12/18 05:41:13;;;;;;;35.50;23.92;;;;;;;5.90;89.68;100147.28;1763250;79;21172;-63
2020/12/18 05:43:44;;;;;;;31.10;22.50;;;;;;;5.92;89.68;100149.85;1761975;79;21208;-64
2020/12/18 05:46:25;;;;;;;31.33;22.58;;;;;;;5.93;89.65;100152.42;1760001;79;21165;-63
2020/12/18 05:49:01;;;;;;;34.95;22.07;;;;;;;5.93;89.65;100142.06;1762156;79;21252;-64
2020/12/18 05:51:38;;;;;;;33.28;23.05;;;;;;;5.96;89.69;100141.98;1764969;79;21202;-64
2020/12/18 05:54:17;;;;;;;32.48;22.60;;;;;;;5.98;89.72;100151.89;1766643;79;21327;-63
2020/12/18 05:56:48;;;;;;;34.45;22.75;;;;;;;5.98;89.72;100154.48;1738238;80;21267;-64
2020/12/18 05:59:20;;;;;;;44.95;22.22;;;;;;;6.00;89.72;100155.31;1773318;79;21179;-64
2020/12/18 06:01:54;;;;;;;47.62;21.30;;;;;;;6.02;89.68;100167.80;1771905;79;21215;-64
2020/12/18 06:04:24;;;;;;;57.60;23.25;;;;;;;6.02;89.69;100155.26;1770771;79;21228;-63
2020/12/18 06:06:56;;;;;;;31.82;21.25;;;;;;;6.02;89.70;100159.15;1765883;79;21164;-64
2020/12/18 06:09:28;;;;;;;42.38;22.73;;;;;;;6.03;89.71;100164.31;1764661;79;21175;-64
2020/12/18 06:11:57;;;;;;;38.85;21.37;;;;;;;6.03;89.70;100168.20;1759959;79;21161;-63
2020/12/18 06:14:24;;;;;;;28.83;20.45;;;;;;;6.03;89.72;100172.09;1760462;79;21250;-64
2020/12/18 06:16:53;;;;;;;37.95;21.82;;;;;;;6.03;89.66;100169.50;1763592;79;21187;-65
2020/12/18 06:19:22;;;;;;;29.35;20.43;;;;;;;6.07;89.76;100172.02;1766060;79;21190;-63
2020/12/18 06:21:59;;;;;;;32.73;20.90;;;;;;;6.08;89.72;100175.89;1766152;79;21230;-65
2020/12/18 06:24:47;;;;;;;31.97;20.62;;;;;;;6.08;89.69;100177.19;1766196;79;21199;-66
2020/12/18 06:27:21;;;;;;;27.73;19.60;;;;;;;6.10;89.71;100175.84;1765305;79;21138;-62
2020/12/18 06:29:49;;;;;;;29.60;18.90;;;;;;;6.11;89.65;100178.86;1765559;79;21469;-66
2020/12/18 06:32:25;;;;;;;27.90;19.07;;;;;;;6.09;89.66;100181.92;1738615;80;21262;-64
2020/12/18 06:35:16;;;;;;;35.28;20.92;;;;;;;6.09;89.70;100178.03;1738757;80;21163;-64
2020/12/18 06:37:47;;;;;;;32.90;20.23;;;;;;;6.10;89.71;100186.21;1757282;79;21305;-64
2020/12/18 06:40:31;;;;;;;38.85;21.05;;;;;;;6.10;89.69;100192.69;1736861;80;21283;-64
2020/12/18 06:43:02;;;;;;;53.02;22.95;;;;;;;6.11;89.68;100195.72;1735512;80;22821;-64
2020/12/18 06:45:33;;;;;;;76.35;29.25;;;;;;;6.11;89.69;100197.02;1766074;79;21196;-64
2020/12/18 06:48:25;;;;;;;50.38;30.23;;;;;;;6.12;89.74;100196.11;1765852;78;21255;-64
2020/12/18 06:50:53;;;;;;;52.93;29.40;;;;;;;6.12;89.72;100196.11;1763178;79;21295;-64
2020/12/18 06:53:22;;;;;;;53.87;29.80;;;;;;;6.15;89.75;100203.82;1768692;78;21210;-63
2020/12/18 06:55:49;;;;;;;38.02;24.18;;;;;;;6.15;89.74;100199.48;1741408;80;22151;-64
2020/12/18 06:58:28;;;;;;;48.35;27.52;;;;;;;6.17;89.75;100196.87;1737489;80;21609;-65
2020/12/18 07:00:58;;;;;;;33.70;23.10;;;;;;;6.14;89.64;100195.64;1743413;80;21616;-65
2020/12/18 07:03:42;;;;;;;41.20;22.70;;;;;;;6.13;89.62;100202.99;1764378;79;21197;-65
2020/12/18 07:06:15;;;;;;;53.35;27.82;;;;;;;6.14;89.72;100202.13;1760137;78;21263;-64
2020/12/18 07:08:43;;;;;;;69.03;29.15;;;;;;;6.14;89.63;100207.31;1758544;79;21279;-65
2020/12/18 07:11:14;;;;;;;50.30;25.15;;;;;;;6.14;89.71;100211.20;1729999;79;21251;-65
2020/12/18 07:13:47;;;;;;;37.42;24.55;;;;;;;6.15;89.73;100214.20;1755333;80;21174;-64
2020/12/18 07:16:20;;;;;;;76.42;33.35;;;;;;;6.18;89.75;100216.72;1758895;78;21250;-63
2020/12/18 07:18:51;;;;;;;34.92;23.47;;;;;;;6.19;89.73;100218.41;1758385;79;21223;-64
2020/12/18 07:21:21;;;;;;;65.37;26.17;;;;;;;6.21;89.76;100211.46;1761353;79;21416;-64
2020/12/18 07:23:52;;;;;;;68.33;33.45;;;;;;;6.24;89.67;100221.77;1768109;79;21205;-64
2020/12/18 07:26:21;;;;;;;71.05;31.90;;;;;;;6.23;89.59;100225.26;1765873;79;21197;-64
2020/12/18 07:28:49;;;;;;;40.92;23.57;;;;;;;6.23;89.60;100220.92;1741091;79;21203;-64
2020/12/18 07:31:27;;;;;;;57.15;27.50;;;;;;;6.25;89.65;100231.27;1742078;80;21191;-64
2020/12/18 07:34:02;;;;;;;48.23;23.38;;;;;;;6.27;89.70;100233.37;1760284;79;21609;-65
2020/12/18 07:36:33;;;;;;;66.25;26.65;;;;;;;6.27;89.60;100229.48;1771544;79;21238;-65
2020/12/18 07:39:02;;;;;;;39.88;21.62;;;;;;;6.28;89.62;100228.61;1726744;81;21356;-66
2020/12/18 07:41:31;;;;;;;64.45;26.10;;;;;;;6.27;89.57;100229.48;1765703;79;21249;-65
2020/12/18 07:44:07;;;;;;;66.77;27.30;;;;;;;6.24;89.55;100229.55;1766127;79;21183;-64
2020/12/18 07:46:38;;;;;;;54.85;25.50;;;;;;;6.22;89.52;100235.23;1766928;80;21253;-64
2020/12/18 07:49:11;;;;;;;43.00;22.15;;;;;;;6.23;89.53;100240.81;1767701;80;21225;-65
2020/12/18 07:51:40;;;;;;;96.17;32.28;;;;;;;6.21;89.50;100242.58;1765604;79;21175;-66
2020/12/18 07:54:20;;;;;;;48.65;21.77;;;;;;;6.21;89.58;100234.80;1738227;81;21615;-63
2020/12/18 07:56:48;;;;;;;42.13;22.13;;;;;;;6.21;89.51;100239.98;1768510;79;21195;-65
2020/12/18 07:59:18;;;;;;;36.40;19.42;;;;;;;6.22;89.50;100247.75;1771885;79;22023;-65
2020/12/18 08:01:48;;;;;;;36.50;19.75;;;;;;;6.23;89.43;100248.59;1743358;81;21146;-64
2020/12/18 08:04:22;;;;;;;37.28;18.42;;;;;;;6.25;89.47;100252.87;1773006;79;21823;-65
2020/12/18 08:06:55;;;;;;;18.20;12.95;;;;;;;6.30;89.49;100255.34;1773141;79;21202;-64
2020/12/18 08:09:25;;;;;;;28.32;16.02;;;;;;;6.33;89.38;100257.91;1744836;79;21164;-63
2020/12/18 08:11:59;;;;;;;21.80;14.70;;;;;;;6.34;89.41;100251.81;1777091;79;21200;-64
2020/12/18 08:14:28;;;;;;;22.32;12.65;;;;;;;6.36;89.41;100255.23;1742068;80;21176;-63
2020/12/18 08:16:57;;;;;;;18.37;13.08;;;;;;;6.39;89.35;100253.87;1772433;79;21108;-64
2020/12/18 08:19:25;;;;;;;22.52;13.03;;;;;;;6.36;89.21;100256.53;1772048;79;21243;-64
2020/12/18 08:21:54;;;;;;;;;;;;;;;6.35;89.21;100253.52;1775323;79;21215;-65
2020/12/18 08:24:33;;;;;;;25.77;12.43;;;;;;;6.36;89.25;100259.55;1729618;81;21627;-64
2020/12/18 08:27:17;;;;;;;24.20;12.93;;;;;;;6.34;89.33;100267.37;1766191;79;21237;-64
2020/12/18 08:29:45;;;;;;;17.62;11.53;;;;;;;6.37;89.39;100264.72;1739332;80;21201;-63
2020/12/18 08:32:20;;;;;;;23.65;12.45;;;;;;;6.40;89.35;100276.77;1772282;79;21060;-63
2020/12/18 08:34:51;;;;;;;23.02;12.50;;;;;;;6.40;89.27;100280.20;1769533;79;21186;-64
2020/12/18 08:37:24;;;;;;;20.20;12.25;;;;;;;6.40;89.27;100276.77;1739052;80;21273;-64
2020/12/18 08:39:53;;;;;;;18.05;12.55;;;;;;;6.41;89.33;100280.64;1761378;79;21249;-64
2020/12/18 08:42:22;;;;;;;19.57;11.73;;;;;;;6.43;89.33;100282.73;1759970;80;21194;-64
2020/12/18 08:44:53;;;;;;;15.03;10.80;;;;;;;6.45;89.27;100284.86;1764674;79;21158;-65
2020/12/18 08:47:28;;;;;;;21.27;12.28;;;;;;;6.44;89.10;100286.18;1765945;80;21063;-64
2020/12/18 08:49:58;;;;;;;19.20;12.80;;;;;;;6.41;89.16;100288.42;1737527;81;21663;-64
2020/12/18 08:52:30;;;;;;;26.55;14.03;;;;;;;6.43;89.25;100291.81;1733124;81;21202;-64
2020/12/18 08:55:07;;;;;;;16.80;11.88;;;;;;;6.45;89.30;100290.05;1729045;81;21178;-64
2020/12/18 08:57:39;;;;;;;20.32;12.88;;;;;;;6.50;89.35;100296.00;1738618;80;21639;-64
2020/12/18 09:00:16;;;;;;;20.17;13.08;;;;;;;6.67;89.58;100292.19;1764295;79;21277;-64
2020/12/18 09:02:57;;;;;;;25.20;14.60;;;;;;;6.86;89.51;100291.31;1764694;80;21196;-64
2020/12/18 09:05:30;;;;;;;38.55;20.05;;;;;;;6.99;89.37;100297.08;1766208;79;21151;-65
2020/12/18 09:08:19;;;;;;;21.37;14.20;;;;;;;7.12;89.25;100301.11;1762916;79;21231;-63
2020/12/18 09:10:56;;;;;;;19.70;12.37;;;;;;;7.16;89.06;100297.53;1760452;79;21131;-64
2020/12/18 09:13:29;;;;;;;19.48;13.83;;;;;;;7.17;88.86;100299.27;1741408;80;21233;-64
2020/12/18 09:16:03;;;;;;;20.75;13.65;;;;;;;7.14;88.75;100296.70;1739134;80;21209;-64
2020/12/18 09:18:36;;;;;;;24.57;14.53;;;;;;;7.06;88.66;100304.70;1766619;79;21668;-63
2020/12/18 09:21:17;;;;;;;29.92;17.45;;;;;;;7.03;88.78;100307.38;1756383;80;21602;-63
2020/12/18 09:23:46;;;;;;;21.07;14.23;;;;;;;7.04;88.90;100313.41;1752819;79;21235;-62
2020/12/18 09:26:25;;;;;;;39.65;17.07;;;;;;;7.09;89.02;100310.27;1755341;79;21589;-63
2020/12/18 09:28:54;;;;;;;30.05;15.60;;;;;;;7.15;89.04;100303.62;1768682;79;21144;-64
2020/12/18 09:31:23;;;;;;;21.85;13.65;;;;;;;7.23;89.03;100317.28;1733245;81;21211;-63
2020/12/18 09:33:53;;;;;;;54.90;22.60;;;;;;;7.26;88.91;100318.51;1730043;81;21056;-65
2020/12/18 09:36:26;;;;;;;48.23;25.25;;;;;;;7.28;88.85;100316.73;1765471;79;21559;-64
2020/12/18 09:38:55;;;;;;;31.82;17.55;;;;;;;7.27;88.78;100310.27;1765594;79;21558;-65
2020/12/18 09:41:24;;;;;;;20.23;13.03;;;;;;;7.25;88.80;100315.48;1768621;79;22744;-65
2020/12/18 09:43:52;;;;;;;;;;;;;;;7.22;88.55;100316.86;1745020;80;21083;-64
2020/12/18 09:46:22;;;;;;;22.60;14.80;;;;;;;7.13;88.64;100313.19;1761228;79;20559;-64
2020/12/18 09:48:50;;;;;;;54.30;21.25;;;;;;;7.10;88.71;100313.27;1757723;79;21673;-64
2020/12/18 09:51:34;;;;;;;23.50;15.32;;;;;;;7.09;88.81;100314.16;1755327;79;21592;-65
2020/12/18 09:54:01;;;;;;;39.42;20.75;;;;;;;7.13;88.83;100317.09;1757190;79;22157;-64
2020/12/18 09:56:28;;;;;;;29.02;16.30;;;;;;;7.20;88.89;100312.17;1755856;80;21209;-65
2020/12/18 09:58:58;;;;;;;24.50;14.33;;;;;;;7.23;88.73;100304.30;1771205;79;21218;-63
2020/12/18 10:01:27;;;;;;;22.82;13.22;;;;;;;7.25;88.67;100310.73;1742676;80;21258;-66
2020/12/18 10:03:55;;;;;;;38.25;16.32;;;;;;;7.26;88.57;100306.82;1732287;80;21186;-64
2020/12/18 10:06:26;;;;;;;35.68;15.03;;;;;;;7.27;88.59;100306.37;1767337;79;21204;-65
2020/12/18 10:08:57;;;;;;;41.13;19.35;;;;;;;7.31;88.67;100304.97;1765212;78;21157;-65
2020/12/18 10:11:30;;;;;;;45.52;20.20;;;;;;;7.37;88.70;100308.70;1764047;79;21828;-64
2020/12/18 10:13:59;;;;;;;32.38;15.20;;;;;;;7.43;88.57;100313.35;1766345;79;21179;-65
2020/12/18 10:16:30;;;;;;;62.20;19.23;;;;;;;7.46;88.57;100308.08;1763797;79;21182;-64
2020/12/18 10:18:59;;;;;;;80.55;17.30;;;;;;;7.50;88.48;100304.49;1767392;79;21419;-63
2020/12/18 10:21:26;;;;;;;72.17;16.50;;;;;;;7.55;88.51;100305.23;1751374;79;21657;-65
2020/12/18 10:23:53;;;;;;;47.67;14.43;;;;;;;7.57;88.34;100308.66;1753040;79;21172;-64
2020/12/18 10:26:21;;;;;;;37.95;16.32;;;;;;;7.52;88.06;100317.01;1755017;79;21225;-64
2020/12/18 10:28:50;;;;;;;34.33;15.53;;;;;;;7.50;88.33;100309.69;1753108;79;21648;-64
2020/12/18 10:31:17;;;;;;;60.23;17.27;;;;;;;7.47;88.09;100311.07;1754227;78;21267;-65
2020/12/18 10:33:48;;;;;;;276.20;40.25;;;;;;;7.42;88.11;100306.42;1762582;79;21165;-65
2020/12/18 10:36:17;;;;;;;133.47;32.05;;;;;;;7.40;88.15;100306.03;1762582;78;21263;-64
2020/12/18 10:38:50;;;;;;;41.42;16.70;;;;;;;7.44;88.16;100312.00;1766749;78;21170;-64
2020/12/18 10:41:20;;;;;;;18.85;10.28;;;;;;;7.47;88.24;100304.57;1740828;79;21216;-65
2020/12/18 10:43:51;;;;;;;31.12;11.80;;;;;;;7.53;88.15;100296.62;1766450;79;22356;-65
2020/12/18 10:46:18;;;;;;;21.68;12.25;;;;;;;7.60;88.33;100291.23;1740863;80;21146;-64
2020/12/18 10:48:49;;;;;;;16.50;8.68;;;;;;;7.83;88.42;100290.61;1740961;80;21213;-67
2020/12/18 10:51:19;;;;;;;45.00;14.47;;;;;;;7.90;88.05;100298.24;1766639;79;21246;-65
2020/12/18 10:53:49;;;;;;;25.12;10.90;;;;;;;7.92;87.85;100300.36;1738765;80;21174;-65
2020/12/18 10:56:18;;;;;;;15.72;9.85;;;;;;;7.90;87.79;100286.55;1727077;81;21263;-65
2020/12/18 10:58:49;;;;;;;24.52;12.93;;;;;;;7.84;87.54;100288.44;1732918;80;21668;-65
2020/12/18 11:01:18;;;;;;;17.73;8.98;;;;;;;7.76;87.38;100289.09;1762123;79;21071;-66
2020/12/18 11:03:48;;;;;;;37.17;13.53;;;;;;;7.73;87.46;100288.30;1756365;79;21250;-65
2020/12/18 11:06:25;;;;;;;25.57;12.30;;;;;;;7.71;87.40;100302.66;1822221;76;22738;-64
2020/12/18 11:08:54;;;;;;;19.98;11.20;;;;;;;7.65;87.45;100297.63;1794360;77;21844;-64
2020/12/18 11:11:23;;;;;;;39.40;14.33;;;;;;;7.62;87.44;100301.59;1803127;77;21469;-64
2020/12/18 11:13:55;;;;;;;25.62;10.95;;;;;;;7.59;87.48;100314.67;1801394;77;21213;-65
2020/12/18 11:16:25;;;;;;;21.85;9.75;;;;;;;7.56;87.41;100318.63;1812621;77;21068;-65
2020/12/18 11:19:01;;;;;;;48.05;14.78;;;;;;;7.54;87.53;100315.23;1759834;79;21063;-65
2020/12/18 11:21:30;;;;;;;27.40;14.68;;;;;;;7.55;87.61;100313.03;1732297;80;21065;-64
2020/12/18 11:23:59;;;;;;;31.73;16.55;;;;;;;7.57;87.56;100313.40;1727921;80;22153;-63
2020/12/18 11:26:27;;;;;;;105.27;29.45;;;;;;;7.60;87.52;100305.97;1744826;80;21022;-63
2020/12/18 11:28:55;;;;;;;100.18;33.48;;;;;;;7.58;87.43;100307.75;1741077;80;21174;-63
2020/12/18 11:31:24;;;;;;;52.90;23.80;;;;;;;7.58;87.36;100302.55;1733446;80;21205;-63
2020/12/18 11:33:53;;;;;;;38.60;17.02;;;;;;;7.59;87.39;100300.38;1735665;80;21207;-62